Terminal Aerodrome Forecast
Issued by NWS

Home | Current Version | Previous Version | Text Only | Print | Product List | Glossary On
Versions: 1 2 3 4 5 6 7 8 9 10 11 12 13 14 15 16 17 18 19 20 21 22 23 24
000
FTUS44 KMOB 041904 AAA
TAFBFM
TAF AMD
KBFM 041904Z 0419/0518 VRB05KT P6SM VCTS SCT030CB BKN200
      TEMPO 0419/0423 17010G20KT 5SM -TSRA BKN025CB
     FM050000 VRB03KT P6SM SKC
     FM051100 VRB05KT P6SM SCT030=

USA.gov is the U.S. government's official web portal to all federal, state and local government web resources and services.